RCSS/TSA METAR and TAF weather

Enter ICAO airport designator
Station Type Date Time Source
RCSS METAR 2020/06/05 12:00 UTC NOAA

RCSS 051200Z 09006KT 9999 FEW020 BKN035 BKN060 30/26 Q1007 NOSIG RMK A2974


Station Type Date Time Source
RCSS Decoded METAR 2020/06/05 12:00 UTC NOAA

Sungshan / Taipei, Taiwan (RCSS) 25-04N 121-33E
Jun 05, 2020 - 08:00 AM EDT / 2020.06.05 1200 UTC
Wind: from the E (090 degrees) at 7 MPH (6 KT):0
Visibility: greater than 7 mile(s):0
Sky conditions: mostly cloudy
Temperature: 86 F (30 C)
Heat index: 99.3 F (37.4 C):1
Dew Point: 78 F (26 C)
Relative Humidity: 79%
Pressure (altimeter): 29.74 in. Hg (1007 hPa)
ob: RCSS 051200Z 09006KT 9999 FEW020 BKN035 BKN060 30/26 Q1007 NOSIG RMK A2974
cycle: 12

Station Type Date Time Source
RCSS TAF 2020/06/05 12:03 UTC NOAA

TAF RCSS 051100Z 0512/0612 29005KT 9999 FEW020 BKN032
TEMPO 0512/0518 27010KT
TEMPO 0605/0611 28010KT 5000 SHRA SCT010 FEW015CB BKN018 BKN040

Example: see airport list